createdAt,value
2023-05-18T00:00:39.805Z,83.47
2023-05-18T00:01:39.874Z,83.67
2023-05-18T00:02:39.988Z,83.56
2023-05-18T00:03:40.226Z,83.56
2023-05-18T00:04:40.215Z,83.98
2023-05-18T00:05:40.202Z,84.19
2023-05-18T00:06:40.251Z,84.19
2023-05-18T00:07:40.321Z,84.08
2023-05-18T00:08:40.440Z,84.08
2023-05-18T00:09:40.508Z,84.08
2023-05-18T00:10:40.616Z,83.87
2023-05-18T00:11:40.663Z,83.87
2023-05-18T00:12:40.758Z,84.29
2023-05-18T00:13:40.850Z,84.19
2023-05-18T00:14:40.928Z,84.08
2023-05-18T00:15:41.026Z,83.98
2023-05-18T00:16:41.164Z,83.98
2023-05-18T00:17:41.210Z,83.98
2023-05-18T00:18:41.323Z,83.98
2023-05-18T00:19:41.314Z,84.08
2023-05-18T00:20:41.420Z,84.08
2023-05-18T00:21:41.472Z,84.01
2023-05-18T00:22:41.560Z,84.53
2023-05-18T00:23:41.644Z,84.94
2023-05-18T00:24:41.734Z,84.84
2023-05-18T00:25:41.838Z,84.94
2023-05-18T00:26:41.887Z,85.25
2023-05-18T00:27:41.966Z,85.25
2023-05-18T00:28:42.069Z,85.25
2023-05-18T00:29:42.128Z,85.25
2023-05-18T00:30:42.214Z,85.36
2023-05-18T00:31:42.294Z,85.46
2023-05-18T00:32:42.417Z,85.39
2023-05-18T00:33:42.419Z,85.50
2023-05-18T00:34:42.506Z,85.50
2023-05-18T00:35:42.588Z,85.60
2023-05-18T00:36:42.669Z,85.81
2023-05-18T00:37:42.732Z,85.71
2023-05-18T00:38:42.809Z,85.71
2023-05-18T00:39:42.887Z,85.46
2023-05-18T00:40:43.005Z,85.39
2023-05-18T00:41:43.006Z,85.30
2023-05-18T00:42:43.094Z,85.09
2023-05-18T00:43:43.155Z,84.99
2023-05-18T00:44:43.241Z,84.99
2023-05-18T00:45:43.379Z,85.09
2023-05-18T00:46:43.403Z,85.09
2023-05-18T00:47:43.551Z,85.09
2023-05-18T00:48:43.584Z,85.23
2023-05-18T00:49:43.612Z,85.13
2023-05-18T00:50:43.735Z,85.13
2023-05-18T00:51:43.793Z,85.64
2023-05-18T00:52:43.865Z,86.36
2023-05-18T00:53:44.222Z,86.47
2023-05-18T00:54:44.026Z,86.47
2023-05-18T00:55:44.113Z,86.36
2023-05-18T00:56:44.172Z,86.26
2023-05-18T00:57:44.266Z,86.16
2023-05-18T00:58:44.336Z,86.05
2023-05-18T00:59:44.419Z,86.05
2023-05-18T01:00:44.503Z,85.95
2023-05-18T01:01:44.588Z,86.20
2023-05-18T01:02:44.710Z,86.16
2023-05-18T01:03:44.704Z,86.36
2023-05-18T01:04:44.864Z,86.20
2023-05-18T01:05:44.890Z,86.20
2023-05-18T01:06:44.963Z,86.10
2023-05-18T01:07:45.022Z,86.10
2023-05-18T01:08:45.124Z,86.10
2023-05-18T01:09:45.182Z,86.30
2023-05-18T01:10:45.354Z,86.51
2023-05-18T01:11:45.335Z,86.47
2023-05-18T01:12:45.446Z,86.26
2023-05-18T01:13:45.510Z,86.16
2023-05-18T01:14:45.640Z,86.05
2023-05-18T01:15:45.714Z,85.85
2023-05-18T01:16:45.808Z,85.58
2023-05-18T01:17:45.849Z,85.37
2023-05-18T01:18:46.031Z,85.27
2023-05-18T01:19:46.002Z,85.27
2023-05-18T01:20:46.180Z,85.47
2023-05-18T01:21:46.206Z,85.41
2023-05-18T01:22:46.254Z,85.62
2023-05-18T01:23:46.312Z,85.72
2023-05-18T01:24:46.394Z,85.93
2023-05-18T01:25:46.494Z,85.93
2023-05-18T01:26:46.521Z,86.03
2023-05-18T01:27:46.720Z,86.24
2023-05-18T01:28:46.732Z,86.24
2023-05-18T01:29:46.758Z,86.24
2023-05-18T01:30:46.885Z,86.34
2023-05-18T01:31:46.918Z,86.34
2023-05-18T01:32:47.264Z,86.24
2023-05-18T01:33:47.041Z,86.24
2023-05-18T01:34:47.132Z,86.24
2023-05-18T01:35:47.250Z,86.24
2023-05-18T01:36:47.300Z,86.24
2023-05-18T01:37:47.404Z,86.03
2023-05-18T01:38:47.487Z,86.03
2023-05-18T01:39:47.608Z,85.93
2023-05-18T01:40:47.652Z,85.93
2023-05-18T01:41:47.734Z,85.97
2023-05-18T01:42:47.784Z,85.97
2023-05-18T01:43:47.890Z,86.07
2023-05-18T01:44:47.953Z,86.28
2023-05-18T01:45:48.084Z,86.38
2023-05-18T01:46:48.159Z,86.28
2023-05-18T01:47:48.280Z,86.38
2023-05-18T01:48:48.404Z,86.49
2023-05-18T01:49:48.442Z,86.69
2023-05-18T01:50:48.523Z,86.69
2023-05-18T01:51:48.564Z,86.69
2023-05-18T01:52:48.624Z,86.59
2023-05-18T01:53:48.723Z,86.59
2023-05-18T01:54:48.783Z,86.38
2023-05-18T01:55:48.876Z,86.28
2023-05-18T01:56:48.938Z,86.18
2023-05-18T01:57:49.023Z,86.07
2023-05-18T01:58:49.081Z,85.97
2023-05-18T01:59:49.188Z,85.91
2023-05-18T02:00:49.257Z,85.80
2023-05-18T02:01:49.372Z,85.70
2023-05-18T02:02:49.463Z,85.70
2023-05-18T02:03:49.541Z,85.70
2023-05-18T02:04:49.597Z,85.70
2023-05-18T02:05:50.460Z,85.70
2023-05-18T02:06:49.712Z,85.80
2023-05-18T02:07:49.812Z,86.01
2023-05-18T02:08:49.866Z,86.01
2023-05-18T02:09:49.979Z,86.01
2023-05-18T02:10:50.063Z,86.07
2023-05-18T02:11:50.167Z,86.07
2023-05-18T02:12:50.228Z,86.01
2023-05-18T02:13:50.289Z,85.91
2023-05-18T02:14:50.360Z,86.11
2023-05-18T02:15:50.514Z,86.11
2023-05-18T02:16:50.532Z,86.01
2023-05-18T02:17:50.677Z,86.11
2023-05-18T02:18:50.734Z,86.01
2023-05-18T02:19:50.763Z,86.01
2023-05-18T02:20:50.827Z,86.11
2023-05-18T02:21:50.930Z,86.11
2023-05-18T02:22:50.994Z,86.11
2023-05-18T02:23:51.094Z,86.21
2023-05-18T02:24:51.171Z,86.32
2023-05-18T02:25:51.276Z,86.21
2023-05-18T02:26:51.368Z,86.21
2023-05-18T02:27:51.441Z,86.25
2023-05-18T02:28:51.505Z,86.42
2023-05-18T02:29:51.602Z,86.46
2023-05-18T02:30:51.659Z,86.46
2023-05-18T02:31:51.795Z,86.46
2023-05-18T02:32:51.843Z,86.46
2023-05-18T02:33:51.887Z,86.67
2023-05-18T02:34:51.935Z,86.77
2023-05-18T02:35:52.047Z,87.08
2023-05-18T02:36:52.115Z,87.08
2023-05-18T02:37:52.219Z,87.08
2023-05-18T02:38:52.274Z,86.88
2023-05-18T02:39:52.383Z,86.77
2023-05-18T02:40:52.456Z,86.91
2023-05-18T02:41:52.571Z,87.18
2023-05-18T02:42:52.597Z,87.29
2023-05-18T02:43:52.669Z,87.29
2023-05-18T02:44:52.724Z,87.18
2023-05-18T02:45:52.844Z,87.08
2023-05-18T02:46:52.877Z,87.12
2023-05-18T02:47:53.022Z,87.33
2023-05-18T02:48:53.046Z,87.39
2023-05-18T02:49:53.142Z,87.29
2023-05-18T02:50:53.206Z,87.18
2023-05-18T02:51:53.316Z,86.98
2023-05-18T02:52:53.355Z,86.88
2023-05-18T02:53:53.467Z,86.91
2023-05-18T02:54:53.528Z,86.81
2023-05-18T02:55:53.618Z,86.50
2023-05-18T02:56:53.721Z,86.60
2023-05-18T02:57:53.804Z,86.60
2023-05-18T02:58:53.878Z,86.71
2023-05-18T02:59:53.978Z,86.81
2023-05-18T03:00:54.069Z,86.91
2023-05-18T03:01:54.156Z,87.02
2023-05-18T03:02:54.265Z,86.91
2023-05-18T03:03:54.320Z,86.81
2023-05-18T03:04:54.390Z,86.91
2023-05-18T03:05:54.480Z,87.08
2023-05-18T03:06:54.568Z,86.98
2023-05-18T03:07:54.648Z,86.98
2023-05-18T03:08:54.789Z,86.98
2023-05-18T03:09:54.808Z,86.88
2023-05-18T03:10:54.863Z,86.91
2023-05-18T03:11:54.982Z,87.02
2023-05-18T03:12:55.017Z,87.02
2023-05-18T03:13:55.101Z,87.12
2023-05-18T03:14:55.161Z,87.33
2023-05-18T03:15:55.271Z,87.33
2023-05-18T03:16:55.386Z,87.43
2023-05-18T03:17:55.484Z,87.23
2023-05-18T03:18:55.544Z,87.12
2023-05-18T03:19:55.576Z,86.91
2023-05-18T03:20:55.639Z,86.71
2023-05-18T03:21:55.748Z,86.81
2023-05-18T03:22:55.824Z,87.02
2023-05-18T03:23:55.907Z,87.06
2023-05-18T03:24:56.012Z,87.06
2023-05-18T03:25:56.107Z,87.06
2023-05-18T03:26:56.171Z,87.06
2023-05-18T03:27:56.243Z,87.16
2023-05-18T03:28:56.311Z,87.27
2023-05-18T03:29:56.391Z,87.37
2023-05-18T03:30:56.540Z,87.37
2023-05-18T03:31:56.658Z,87.27
2023-05-18T03:32:56.678Z,87.27
2023-05-18T03:33:56.744Z,87.27
2023-05-18T03:34:56.832Z,87.16
2023-05-18T03:35:56.914Z,87.16
2023-05-18T03:36:58.775Z,87.06
2023-05-18T03:37:57.067Z,86.96
2023-05-18T03:38:57.148Z,86.85
2023-05-18T03:39:57.245Z,86.85
2023-05-18T03:40:57.341Z,86.85
2023-05-18T03:41:57.411Z,86.85
2023-05-18T03:42:57.499Z,86.85
2023-05-18T03:43:57.548Z,86.75
2023-05-18T03:44:57.672Z,86.65
2023-05-18T03:45:57.760Z,86.75
2023-05-18T03:46:57.831Z,86.85
2023-05-18T03:47:58.043Z,86.96
2023-05-18T03:48:58.035Z,86.96
2023-05-18T03:49:58.088Z,86.96
2023-05-18T03:50:58.182Z,86.85
2023-05-18T03:51:58.253Z,86.96
2023-05-18T03:52:58.374Z,87.06
2023-05-18T03:53:58.408Z,87.06
2023-05-18T03:54:58.504Z,86.96
2023-05-18T03:55:58.544Z,87.06
2023-05-18T03:56:58.632Z,87.06
2023-05-18T03:57:58.726Z,86.96
2023-05-18T03:58:58.790Z,86.85
2023-05-18T03:59:58.866Z,86.75
2023-05-18T04:00:58.966Z,86.79
2023-05-18T04:01:59.048Z,86.85
2023-05-18T04:02:59.198Z,86.96
2023-05-18T04:03:59.227Z,87.06
2023-05-18T04:04:59.317Z,86.96
2023-05-18T04:05:59.373Z,86.85
2023-05-18T04:06:59.470Z,86.85
2023-05-18T04:07:59.562Z,86.85
2023-05-18T04:08:59.627Z,86.96
2023-05-18T04:09:59.709Z,86.75
2023-05-18T04:10:59.831Z,87.06
2023-05-18T04:11:59.869Z,87.16
2023-05-18T04:12:59.959Z,87.16
2023-05-18T04:13:59.994Z,87.02
2023-05-18T04:15:00.114Z,86.81
2023-05-18T04:16:00.249Z,86.71
2023-05-18T04:17:00.258Z,86.60
2023-05-18T04:18:00.386Z,86.60
2023-05-18T04:19:00.560Z,86.60
2023-05-18T04:20:00.491Z,86.40
2023-05-18T04:21:00.582Z,86.19
2023-05-18T04:22:00.654Z,86.29
2023-05-18T04:23:00.766Z,86.29
2023-05-18T04:24:00.838Z,86.40
2023-05-18T04:25:00.950Z,86.40
2023-05-18T04:26:01.027Z,86.40
2023-05-18T04:27:01.124Z,86.29
2023-05-18T04:28:01.529Z,86.40
2023-05-18T04:29:01.290Z,86.60
2023-05-18T04:30:01.373Z,86.60
2023-05-18T04:31:01.449Z,86.81
2023-05-18T04:32:01.600Z,86.60
2023-05-18T04:33:01.676Z,86.60
2023-05-18T04:34:01.670Z,86.91
2023-05-18T04:35:01.768Z,86.91
2023-05-18T04:36:01.869Z,86.91
2023-05-18T04:37:01.960Z,86.88
2023-05-18T04:38:02.048Z,86.77
2023-05-18T04:39:02.111Z,86.67
2023-05-18T04:40:02.226Z,86.46
2023-05-18T04:41:02.265Z,86.36
2023-05-18T04:42:02.338Z,86.25
2023-05-18T04:43:02.460Z,86.25
2023-05-18T04:44:02.518Z,86.15
2023-05-18T04:45:02.609Z,86.15
2023-05-18T04:46:02.756Z,86.15
2023-05-18T04:47:02.774Z,86.15
2023-05-18T04:48:02.930Z,86.15
2023-05-18T04:49:02.994Z,86.11
2023-05-18T04:50:03.044Z,86.01
2023-05-18T04:51:03.151Z,86.01
2023-05-18T04:52:03.197Z,85.91
2023-05-18T04:53:03.309Z,85.80
2023-05-18T04:54:03.361Z,85.70
2023-05-18T04:55:03.444Z,85.70
2023-05-18T04:56:03.520Z,85.60
2023-05-18T04:57:03.682Z,85.60
2023-05-18T04:58:03.710Z,85.49
2023-05-18T04:59:03.791Z,85.45
2023-05-18T05:00:03.866Z,85.24
2023-05-18T05:01:03.969Z,85.24
2023-05-18T05:02:04.006Z,85.04
2023-05-18T05:03:04.266Z,84.94
2023-05-18T05:04:04.162Z,84.94
2023-05-18T05:05:04.244Z,85.04
2023-05-18T05:06:04.312Z,85.04
2023-05-18T05:07:04.418Z,85.04
2023-05-18T05:08:04.490Z,84.89
2023-05-18T05:09:04.584Z,84.79
2023-05-18T05:10:04.631Z,84.59
2023-05-18T05:11:04.736Z,84.48
2023-05-18T05:12:04.794Z,84.48
2023-05-18T05:13:04.935Z,84.44
2023-05-18T05:14:04.976Z,84.55
2023-05-18T05:15:05.080Z,84.44
2023-05-18T05:16:05.168Z,84.55
2023-05-18T05:17:05.233Z,84.69
2023-05-18T05:18:05.382Z,84.89
2023-05-18T05:19:05.454Z,85.10
2023-05-18T05:20:05.492Z,85.21
2023-05-18T05:21:05.559Z,85.31
2023-05-18T05:22:05.654Z,85.41
2023-05-18T05:23:05.780Z,85.47
2023-05-18T05:24:05.790Z,85.47
2023-05-18T05:25:06.337Z,85.47
2023-05-18T05:26:05.976Z,85.27
2023-05-18T05:27:06.064Z,85.02
2023-05-18T05:28:06.172Z,85.02
2023-05-18T05:29:06.237Z,85.13
2023-05-18T05:30:06.310Z,85.33
2023-05-18T05:31:06.444Z,85.33
2023-05-18T05:32:06.496Z,85.33
2023-05-18T05:33:06.646Z,85.54
2023-05-18T05:34:06.653Z,85.64
2023-05-18T05:35:06.732Z,85.64
2023-05-18T05:36:06.807Z,85.75
2023-05-18T05:37:06.891Z,85.85
2023-05-18T05:38:06.968Z,85.95
2023-05-18T05:39:07.053Z,86.05
2023-05-18T05:40:07.137Z,86.02
2023-05-18T05:41:07.226Z,85.57
2023-05-18T05:42:07.300Z,85.36
2023-05-18T05:43:07.408Z,84.80
2023-05-18T05:44:07.475Z,84.70
2023-05-18T05:45:07.607Z,84.77
2023-05-18T05:46:07.629Z,84.31
2023-05-18T05:47:07.793Z,83.00
2023-05-18T05:48:07.865Z,81.52
2023-05-18T05:49:07.867Z,80.11
2023-05-18T05:50:08.033Z,79.15
2023-05-18T05:51:08.025Z,77.95
2023-05-18T05:52:08.102Z,77.36
2023-05-18T05:53:08.201Z,75.59
2023-05-18T05:54:10.068Z,74.69
2023-05-18T05:55:08.396Z,73.91
2023-05-18T05:56:08.452Z,71.80
2023-05-18T05:57:08.517Z,70.92
2023-05-18T05:58:08.582Z,68.67
2023-05-18T05:59:08.651Z,68.40
2023-05-18T06:00:08.698Z,67.46
2023-05-18T06:01:08.756Z,66.99
2023-05-18T06:02:08.886Z,65.22
2023-05-18T06:03:09.018Z,64.45
2023-05-18T06:04:09.033Z,64.12
2023-05-18T06:05:09.097Z,63.24
2023-05-18T06:06:09.200Z,61.29
2023-05-18T06:07:09.286Z,61.46
2023-05-18T06:08:09.385Z,60.11
2023-05-18T06:09:09.462Z,60.69
2023-05-18T06:10:09.495Z,58.54
2023-05-18T06:11:11.513Z,57.83
2023-05-18T06:12:09.671Z,57.20
2023-05-18T06:13:10.007Z,56.51
2023-05-18T06:14:09.844Z,57.80
2023-05-18T06:15:09.944Z,56.66
2023-05-18T06:16:10.037Z,55.93
2023-05-18T06:17:10.091Z,55.80
2023-05-18T06:18:12.119Z,55.34
2023-05-18T06:19:10.322Z,54.03
2023-05-18T06:20:10.323Z,53.30
2023-05-18T06:21:10.406Z,53.38
2023-05-18T06:22:10.458Z,53.25
2023-05-18T06:23:12.460Z,52.22
2023-05-18T06:24:10.624Z,51.97
2023-05-18T06:25:10.803Z,49.95
2023-05-18T06:26:10.802Z,50.73
2023-05-18T06:27:10.905Z,50.43
2023-05-18T06:28:10.959Z,51.06
2023-05-18T06:29:11.080Z,50.63
2023-05-18T06:30:11.179Z,49.98
2023-05-18T06:31:11.240Z,48.43
2023-05-18T06:32:11.344Z,47.92
2023-05-18T06:33:11.524Z,46.92
2023-05-18T06:34:11.546Z,48.57
2023-05-18T06:35:11.616Z,48.65
2023-05-18T06:36:11.667Z,47.09
2023-05-18T06:37:11.760Z,47.07
2023-05-18T06:38:11.862Z,45.84
2023-05-18T06:39:11.977Z,45.84
2023-05-18T06:40:12.037Z,46.15
2023-05-18T06:41:12.125Z,46.92
2023-05-18T06:42:12.215Z,48.29
2023-05-18T06:43:12.288Z,48.39
2023-05-18T06:44:12.390Z,48.32
2023-05-18T06:45:12.449Z,49.24
2023-05-18T06:46:12.573Z,49.30
2023-05-18T06:47:12.566Z,47.94
2023-05-18T06:48:12.662Z,48.11
2023-05-18T06:49:12.781Z,49.47
2023-05-18T06:50:12.829Z,50.52
2023-05-18T06:51:12.912Z,51.10
2023-05-18T06:52:12.960Z,50.15
2023-05-18T06:53:13.099Z,49.57
2023-05-18T06:54:13.147Z,49.67
2023-05-18T06:55:13.216Z,49.39
2023-05-18T06:56:13.261Z,50.13
2023-05-18T06:57:13.323Z,48.85
2023-05-18T06:58:13.410Z,47.15
2023-05-18T06:59:13.530Z,45.00
2023-05-18T07:00:13.600Z,45.50
2023-05-18T07:01:13.759Z,45.53
2023-05-18T07:02:13.762Z,45.32
2023-05-18T07:03:13.975Z,45.20
2023-05-18T07:04:14.009Z,45.75
2023-05-18T07:05:14.009Z,45.34
2023-05-18T07:06:14.057Z,45.42
2023-05-18T07:07:14.154Z,44.35
2023-05-18T07:08:14.227Z,43.29
2023-05-18T07:09:14.346Z,41.33
2023-05-18T07:10:14.379Z,40.86
2023-05-18T07:11:14.461Z,41.02
2023-05-18T07:12:14.532Z,39.48
2023-05-18T07:13:14.644Z,38.67
2023-05-18T07:14:14.720Z,38.25
2023-05-18T07:15:14.804Z,38.35
2023-05-18T07:16:14.911Z,38.95
2023-05-18T07:17:14.961Z,38.41
2023-05-18T07:18:15.121Z,37.40
2023-05-18T07:19:15.324Z,38.20
2023-05-18T07:20:15.235Z,37.46
2023-05-18T07:21:15.314Z,37.06
2023-05-18T07:22:15.386Z,36.77
2023-05-18T07:23:15.486Z,36.78
2023-05-18T07:24:15.603Z,36.98
2023-05-18T07:25:15.649Z,37.28
2023-05-18T07:26:15.701Z,36.55
2023-05-18T07:27:15.800Z,35.72
2023-05-18T07:28:15.850Z,35.11
2023-05-18T07:29:15.987Z,34.61
2023-05-18T07:30:16.007Z,36.57
2023-05-18T07:31:16.139Z,36.77
2023-05-18T07:32:16.164Z,37.49
2023-05-18T07:33:16.271Z,39.04
2023-05-18T07:34:16.377Z,38.23
2023-05-18T07:35:16.432Z,38.09
2023-05-18T07:36:16.486Z,36.87
2023-05-18T07:37:16.572Z,36.82
2023-05-18T07:38:16.636Z,37.30
2023-05-18T07:39:19.100Z,36.94
2023-05-18T07:40:16.788Z,36.02
2023-05-18T07:41:16.887Z,35.82
2023-05-18T07:42:16.961Z,34.61
2023-05-18T07:43:17.067Z,33.90
2023-05-18T07:44:17.167Z,33.07
2023-05-18T07:45:17.242Z,32.67
2023-05-18T07:46:17.374Z,32.27
2023-05-18T07:47:17.393Z,32.88
2023-05-18T07:48:17.463Z,32.88
2023-05-18T07:49:17.573Z,31.59
2023-05-18T07:50:17.638Z,33.11
2023-05-18T07:51:17.737Z,33.78
2023-05-18T07:52:17.821Z,33.37
2023-05-18T07:53:17.919Z,32.95
2023-05-18T07:54:18.027Z,32.14
2023-05-18T07:55:18.062Z,31.93
2023-05-18T07:56:18.157Z,30.92
2023-05-18T07:57:18.230Z,31.30
2023-05-18T07:58:18.316Z,30.81
2023-05-18T07:59:18.422Z,29.82
2023-05-18T08:00:18.467Z,29.51
2023-05-18T08:01:18.572Z,29.91
2023-05-18T08:02:18.676Z,30.32
2023-05-18T08:03:18.767Z,29.92
2023-05-18T08:04:18.893Z,29.92
2023-05-18T08:05:18.866Z,30.04
2023-05-18T08:06:18.971Z,30.73
2023-05-18T08:07:19.033Z,30.33
2023-05-18T08:08:19.108Z,30.33
2023-05-18T08:09:19.189Z,29.92
2023-05-18T08:10:19.271Z,30.33
2023-05-18T08:11:19.345Z,31.33
2023-05-18T08:12:19.436Z,30.46
2023-05-18T08:13:19.531Z,31.02
2023-05-18T08:14:19.646Z,30.10
2023-05-18T08:15:19.709Z,29.33
2023-05-18T08:16:19.891Z,29.82
2023-05-18T08:17:19.886Z,28.93
2023-05-18T08:18:19.956Z,29.41
2023-05-18T08:19:20.122Z,28.31
2023-05-18T08:20:20.117Z,28.80
2023-05-18T08:21:20.171Z,28.52
2023-05-18T08:22:20.247Z,28.85
2023-05-18T08:23:20.320Z,28.93
2023-05-18T08:24:20.418Z,29.25
2023-05-18T08:25:20.495Z,29.43
2023-05-18T08:26:20.583Z,29.11
2023-05-18T08:27:20.676Z,29.52
2023-05-18T08:28:20.774Z,29.85
2023-05-18T08:29:20.877Z,30.33
2023-05-18T08:30:20.943Z,30.04
2023-05-18T08:31:21.033Z,29.72
2023-05-18T08:32:21.156Z,29.92
2023-05-18T08:33:21.209Z,30.29
2023-05-18T08:34:21.264Z,31.76
2023-05-18T08:35:21.312Z,31.05
2023-05-18T08:36:21.403Z,30.54
2023-05-18T08:37:21.493Z,30.04
2023-05-18T08:38:21.600Z,29.92
2023-05-18T08:39:21.657Z,29.99
2023-05-18T08:40:21.758Z,29.47
2023-05-18T08:41:21.830Z,29.58
2023-05-18T08:42:21.958Z,30.43
2023-05-18T08:43:22.000Z,30.82
2023-05-18T08:44:22.128Z,30.30
2023-05-18T08:45:22.176Z,29.28
2023-05-18T08:46:22.300Z,28.52
2023-05-18T08:47:22.376Z,30.05
2023-05-18T08:48:23.419Z,29.92
2023-05-18T08:49:22.537Z,30.22
2023-05-18T08:50:24.399Z,30.30
2023-05-18T08:51:22.684Z,29.79
2023-05-18T08:52:22.770Z,30.10
2023-05-18T08:53:22.864Z,29.13
2023-05-18T08:54:22.985Z,30.12
2023-05-18T08:55:23.045Z,29.71
2023-05-18T08:56:23.146Z,30.10
2023-05-18T08:57:23.201Z,29.51
2023-05-18T08:58:23.300Z,30.05
2023-05-18T08:59:23.376Z,30.38
2023-05-18T09:00:24.379Z,30.69
2023-05-18T09:01:23.612Z,31.00
2023-05-18T09:02:23.614Z,31.71
2023-05-18T09:03:23.667Z,31.38
2023-05-18T09:04:23.822Z,30.97
2023-05-18T09:05:23.918Z,30.94
2023-05-18T09:06:24.217Z,30.05
2023-05-18T09:07:23.966Z,31.04
2023-05-18T09:08:24.068Z,30.97
2023-05-18T09:09:24.426Z,33.39
2023-05-18T09:10:24.237Z,32.41
2023-05-18T09:11:24.324Z,32.29
2023-05-18T09:12:24.849Z,31.81
2023-05-18T09:13:24.502Z,32.90
2023-05-18T09:14:24.611Z,33.02
2023-05-18T09:15:24.658Z,32.82
2023-05-18T09:16:24.927Z,31.61
2023-05-18T09:17:24.876Z,32.39
2023-05-18T09:18:26.866Z,31.58
2023-05-18T09:19:25.126Z,31.67
2023-05-18T09:20:25.075Z,31.15
2023-05-18T09:21:25.126Z,31.40
2023-05-18T09:22:25.230Z,31.20
2023-05-18T09:23:25.276Z,30.57
2023-05-18T09:24:25.377Z,30.44
2023-05-18T09:25:25.425Z,30.60
2023-05-18T09:26:25.515Z,29.58
2023-05-18T09:27:25.599Z,30.09
2023-05-18T09:28:25.687Z,28.38
2023-05-18T09:29:25.760Z,28.51
2023-05-18T09:30:25.830Z,29.63
2023-05-18T09:31:25.931Z,29.91
2023-05-18T09:32:26.045Z,29.20
2023-05-18T09:33:26.179Z,28.70
2023-05-18T09:34:26.164Z,30.60
2023-05-18T09:35:26.220Z,31.14
2023-05-18T09:36:26.306Z,30.86
2023-05-18T09:37:26.389Z,31.13
2023-05-18T09:38:26.479Z,30.41
2023-05-18T09:39:26.598Z,30.22
2023-05-18T09:40:26.659Z,31.35
2023-05-18T09:41:26.716Z,31.85
2023-05-18T09:42:26.820Z,30.55
2023-05-18T09:43:26.877Z,28.93
2023-05-18T09:44:26.978Z,28.86
2023-05-18T09:45:27.016Z,31.07
2023-05-18T09:46:27.153Z,31.67
2023-05-18T09:47:27.195Z,31.75
2023-05-18T09:48:27.273Z,30.43
2023-05-18T09:49:27.381Z,29.63
2023-05-18T09:50:27.440Z,28.81
2023-05-18T09:51:27.511Z,29.92
2023-05-18T09:52:27.611Z,30.74
2023-05-18T09:53:27.675Z,30.53
2023-05-18T09:54:27.888Z,30.13
2023-05-18T09:55:27.821Z,30.94
2023-05-18T09:56:27.912Z,31.35
2023-05-18T09:57:27.965Z,30.66
2023-05-18T09:58:28.061Z,30.76
2023-05-18T09:59:28.131Z,30.16
2023-05-18T10:00:28.185Z,30.41
2023-05-18T10:01:28.330Z,31.24
2023-05-18T10:02:28.392Z,36.99
2023-05-18T10:03:28.447Z,35.14
2023-05-18T10:04:28.608Z,35.36
2023-05-18T10:05:28.639Z,35.30
2023-05-18T10:06:28.667Z,35.50
2023-05-18T10:07:28.738Z,35.86
2023-05-18T10:08:28.833Z,35.73
2023-05-18T10:09:28.936Z,34.46
2023-05-18T10:10:29.096Z,34.34
2023-05-18T10:11:29.045Z,33.25
2023-05-18T10:12:29.147Z,33.84
2023-05-18T10:13:29.226Z,34.63
2023-05-18T10:14:31.232Z,34.80
2023-05-18T10:15:29.658Z,33.18
2023-05-18T10:16:29.582Z,33.05
2023-05-18T10:17:29.683Z,33.31
2023-05-18T10:18:29.726Z,35.71
2023-05-18T10:19:29.776Z,35.43
2023-05-18T10:20:30.001Z,35.11
2023-05-18T10:21:29.909Z,35.48
2023-05-18T10:22:29.998Z,35.78
2023-05-18T10:23:30.061Z,36.56
2023-05-18T10:24:30.176Z,35.54
2023-05-18T10:25:30.205Z,34.44
2023-05-18T10:26:30.267Z,34.36
2023-05-18T10:27:30.359Z,35.10
2023-05-18T10:28:30.477Z,34.99
2023-05-18T10:29:30.569Z,34.89
2023-05-18T10:30:30.850Z,35.18
2023-05-18T10:31:30.724Z,35.18
2023-05-18T10:32:30.791Z,34.68
2023-05-18T10:33:30.895Z,34.50
2023-05-18T10:34:30.986Z,34.98
2023-05-18T10:35:31.028Z,35.48
2023-05-18T10:36:31.133Z,36.08
2023-05-18T10:37:31.190Z,36.01
2023-05-18T10:38:31.272Z,36.81
2023-05-18T10:39:31.339Z,35.80
2023-05-18T10:40:31.665Z,36.78
2023-05-18T10:41:31.458Z,34.96
2023-05-18T10:42:31.561Z,35.18
2023-05-18T10:43:31.630Z,35.53
2023-05-18T10:44:31.736Z,36.85
2023-05-18T10:45:31.789Z,36.80
2023-05-18T10:46:32.016Z,38.42
2023-05-18T10:47:32.196Z,39.26
2023-05-18T10:48:32.118Z,40.17
2023-05-18T10:49:32.160Z,41.25
2023-05-18T10:50:32.619Z,39.95
2023-05-18T10:51:32.310Z,39.32
2023-05-18T10:52:32.399Z,39.62
2023-05-18T10:53:32.470Z,40.20
2023-05-18T10:54:32.581Z,40.30
2023-05-18T10:55:32.634Z,41.51
2023-05-18T10:56:32.736Z,43.02
2023-05-18T10:57:32.822Z,41.79
2023-05-18T10:58:32.922Z,42.05
2023-05-18T10:59:33.020Z,40.33
2023-05-18T11:00:33.325Z,40.22
2023-05-18T11:01:33.226Z,40.73
2023-05-18T11:02:33.327Z,41.75
2023-05-18T11:03:33.358Z,41.75
2023-05-18T11:04:33.496Z,42.35
2023-05-18T11:05:33.514Z,44.29
2023-05-18T11:06:33.628Z,42.68
2023-05-18T11:07:33.664Z,42.07
2023-05-18T11:08:33.784Z,42.47
2023-05-18T11:09:33.867Z,42.80
2023-05-18T11:10:33.928Z,43.10
2023-05-18T11:11:34.021Z,42.19
2023-05-18T11:12:34.129Z,43.40
2023-05-18T11:13:34.172Z,43.51
2023-05-18T11:14:34.286Z,42.10
2023-05-18T11:15:34.357Z,42.01
2023-05-18T11:16:34.476Z,42.92
2023-05-18T11:17:34.604Z,43.82
2023-05-18T11:18:34.639Z,43.20
2023-05-18T11:19:34.693Z,43.28
2023-05-18T11:20:34.746Z,43.26
2023-05-18T11:21:34.867Z,43.06
2023-05-18T11:22:34.911Z,41.73
2023-05-18T11:23:34.978Z,41.33
2023-05-18T11:24:35.111Z,41.82
2023-05-18T11:25:35.143Z,42.94
2023-05-18T11:26:35.241Z,41.83
2023-05-18T11:27:35.286Z,41.93
2023-05-18T11:28:35.382Z,42.64
2023-05-18T11:29:37.290Z,41.83
2023-05-18T11:30:35.852Z,41.71
2023-05-18T11:31:35.631Z,42.44
2023-05-18T11:32:35.864Z,41.73
2023-05-18T11:33:35.798Z,41.33
2023-05-18T11:34:38.945Z,41.83
2023-05-18T11:35:35.958Z,42.24
2023-05-18T11:36:36.015Z,41.61
2023-05-18T11:37:36.065Z,41.61
2023-05-18T11:38:36.161Z,43.42
2023-05-18T11:39:42.093Z,42.44
2023-05-18T11:40:36.357Z,43.64
2023-05-18T11:41:36.443Z,44.45
2023-05-18T11:42:36.518Z,42.24
2023-05-18T11:43:36.606Z,41.83
2023-05-18T11:44:36.702Z,41.53
2023-05-18T11:45:36.798Z,41.31
2023-05-18T11:46:36.855Z,41.21
2023-05-18T11:47:36.982Z,41.03
2023-05-18T11:48:37.229Z,41.53
2023-05-18T11:49:37.059Z,42.74
2023-05-18T11:50:37.193Z,40.42
2023-05-18T11:51:37.221Z,40.73
2023-05-18T11:52:37.322Z,41.13
2023-05-18T11:53:37.376Z,41.13
2023-05-18T11:54:37.469Z,42.21
2023-05-18T11:55:37.539Z,43.72
2023-05-18T11:56:37.619Z,43.42
2023-05-18T11:57:37.675Z,43.60
2023-05-18T11:58:37.768Z,43.40
2023-05-18T11:59:37.835Z,42.30
2023-05-18T12:00:37.949Z,42.80
2023-05-18T12:01:38.012Z,42.49
2023-05-18T12:02:38.129Z,41.09
2023-05-18T12:03:38.213Z,42.27
2023-05-18T12:04:38.293Z,40.97
2023-05-18T12:05:38.357Z,42.38
2023-05-18T12:06:38.426Z,42.47
2023-05-18T12:07:38.505Z,42.47
2023-05-18T12:08:38.585Z,42.47
2023-05-18T12:09:38.699Z,40.77
2023-05-18T12:10:38.780Z,41.37
2023-05-18T12:11:38.858Z,40.77
2023-05-18T12:12:38.934Z,40.79
2023-05-18T12:13:39.019Z,42.19
2023-05-18T12:14:39.061Z,41.09
2023-05-18T12:15:39.168Z,42.40
2023-05-18T12:16:39.238Z,42.78
2023-05-18T12:17:39.398Z,44.18
2023-05-18T12:18:39.416Z,42.88
2023-05-18T12:19:39.449Z,42.05
2023-05-18T12:20:39.528Z,40.45
2023-05-18T12:21:39.591Z,41.67
2023-05-18T12:22:39.661Z,42.78
2023-05-18T12:23:39.731Z,40.17
2023-05-18T12:24:39.782Z,41.97
2023-05-18T12:25:39.895Z,43.50
2023-05-18T12:26:39.951Z,43.00
2023-05-18T12:27:40.078Z,43.50
2023-05-18T12:28:40.093Z,42.58
2023-05-18T12:29:40.195Z,43.48
2023-05-18T12:30:40.300Z,42.49
2023-05-18T12:31:40.646Z,42.21
2023-05-18T12:32:40.457Z,41.71
2023-05-18T12:33:40.504Z,41.11
2023-05-18T12:34:40.548Z,41.53
2023-05-18T12:35:40.669Z,42.05
2023-05-18T12:36:40.716Z,43.46
2023-05-18T12:38:40.866Z,43.95
2023-05-18T12:39:40.958Z,43.64
2023-05-18T12:40:41.051Z,43.32
2023-05-18T12:41:41.100Z,43.82
2023-05-18T12:42:41.153Z,42.60
2023-05-18T12:43:41.246Z,42.10
2023-05-18T12:44:41.311Z,40.22
2023-05-18T12:45:41.449Z,41.65
2023-05-18T12:46:41.519Z,41.85
2023-05-18T12:47:41.622Z,41.65
2023-05-18T12:48:41.610Z,42.86
2023-05-18T12:49:41.712Z,43.46
2023-05-18T12:50:41.787Z,43.04
2023-05-18T12:51:41.809Z,41.03
2023-05-18T12:52:41.860Z,42.64
2023-05-18T12:53:41.962Z,43.04
2023-05-18T12:54:42.019Z,41.63